Tiempo atmosférico en la estación meteorológica de Soria, Soria (1082 m.)



Fecha
DESCASC
Temp. máxima en grados centígrados (hora)
DESCASC
Temp. mínima en grados centígrados (hora)
DESCASC
Temp. media en grados centígrados
DESCASC
Racha de viento máxima en m/sg (hora)
DESCASC
Velocidad máxima media en intervalos de 10 minutos(hora)
DESCASC
Precipitaciones diarias en mm
DESCASC
Precipitaciones de 00:00 a 06:00 en mm
DESCASC
Precipitaciones de 06:00 a 12:00 en mm
DESCASC
Precipitaciones de 12:00 a 18:00 en mm
DESCASC
Precipitaciones de 18:00 a 24:00 en mm
DESCASC
06-12-2018 14.4 (12:30) 2.7 (23:50) 8.5 8.61 (14:00) 5 (15:00) 0 0 0 0 0
05-12-2018 18.7 (14:20) -0.7 (08:30) 9 10 (17:00) 5.56 (16:20) 0 0 0 0 0
04-12-2018 14.7 (16:10) 4.3 (23:59) 9.5 4.17 (01:00) 2.22 (01:00) 0 0 0 0 0
03-12-2018 12.7 (13:20) 6.2 (00:00) 9.4 14.17 (03:00) 8.61 (03:10) 0 0 0 0 0
02-12-2018 13 (15:10) 6.2 (00:00) 9.6 13.33 (07:30) 6.67 (01:20) 0 0 0 0 0
01-12-2018 10.3 (14:40) 0.1 (00:00) 5.2 13.06 (13:20) 7.78 (13:20) 0 0 0 0 0
30-11-2018 8.5 (15:20) 0.1 (00:00) 4.3 8.33 (11:30) 5 (14:00) 0.2 0.2 0 0 0
29-11-2018 14.1 (14:50) -3.1 (-00:0) 5.5 8.61 (20:40) 3.89 (21:30) 0.8 0 0 0 0.8
28-11-2018 14 (13:10) 1.3 (00:00) 7.6 8.33 (12:20) 5 (14:30) 0 0 0 0 0
27-11-2018 12.5 (14:30) 0.3 (00:00) 6.4 7.5 (06:40) 4.44 (06:40) 0 0 0 0 0
25-11-2018 11.8 (15:20) 3.3 (00:00) 7.6 10.83 (13:10) 5.28 (13:10) 6.8 2.6 2.6 0 1.6
24-11-2018 8.1 (13:30) 1.1 (00:00) 4.6 8.61 (13:30) 5 (12:40) 0 0 0 0 0
23-11-2018 8.9 (16:00) 1.6 (00:00) 5.2 9.72 (13:40) 5.83 (15:30) 4.4 2.8 1.6 0 0
22-11-2018 8.5 (16:20) 1 (00:00) 4.8 7.5 (13:20) 4.17 (12:50) 0 0 0 0 0
21-11-2018 9.8 (15:00) 3.7 (00:00) 6.8 12.22 (13:30) 5.28 (13:30) 2.6 1.8 0.4 0.4 0
20-11-2018 8.3 (15:30) 4.8 (00:00) 6.6 11.11 (11:20) 6.11 (11:50) 11 0 8 2.2 0.8
19-11-2018 11.3 (14:20) 5.1 (00:00) 8.2 8.06 (00:50) 3.89 (01:00) 0.2 0.2 0 0 0
18-11-2018 10.2 (12:20) 5.7 (00:00) 7.9 10.56 (17:40) 4.44 (18:40) 3.6 0 0 0 3.6
17-11-2018 15.1 (15:00) 7 (00:00) 11.1 4.72 (14:30) 2.78 (14:40) 0 0 0 0 0
16-11-2018 15.8 (15:10) 6.9 (00:00) 11.4 6.39 (15:30) 2.78 (15:30) 0.6 0 0 0 0.6
15-11-2018 15 (15:20) 7.4 (00:00) 11.2 5.28 (14:40) 2.78 (18:50) 0 0 0 0 0
14-11-2018 16.4 (15:20) 7.8 (00:00) 12.1 5.56 (21:10) 2.78 (19:00) 0 0 0 0 0
13-11-2018 17 (14:30) 5.6 (00:00) 11.3 6.11 (16:40) 3.06 (16:50) 0 0 0 0 0
12-11-2018 12.9 (15:10) 8.6 (00:00) 10.8 6.67 (09:30) 3.61 (10:00) 1.2 0 0 0 1.2
11-11-2018 13 (14:00) 8.4 (00:00) 10.7 8.89 (14:50) 5.28 (14:50) 0 0 0 0 0
10-11-2018 10.3 (17:40) 6.2 (00:00) 8.3 12.22 (21:20) 6.39 (20:30) 8.2 0.4 1.2 6.6 0

Gráficas

Temp. máximas Temp. mínimas Temp. medias Precipitaciones Rachas de viento máximas Velocidades máximas media en intervalos de 10 minutos

Datos horarios

Fecha y hora oficial Temperatura (ºC) Velocidad del viento (km/h) Dirección del viento Racha (km/h) Dirección de racha Precipitación (mm) Presión (hPa) Tendencia (hPa) Humedad (%)
2018-12-09 23:00:00 3.8 2 Sudeste 9 Nordeste 0 907.4 0.7 75
2018-12-09 22:00:00 5.2 5 Nordeste 8 Nordeste 0 907.3 1.3 70
2018-12-09 21:00:00 5.4 3 Norte 9 Nordeste 0 907 1.5 71
2018-12-09 20:00:00 6.8 0 Calma 9 Noroeste 0 906.7 1.5 64
2018-12-09 19:00:00 8.9 9 Oeste 19 Oeste 0 906 1.2 65
2018-12-09 18:00:00 11.1 9 Oeste 14 Sudoeste 0 905.5 0.7 45
2018-12-09 17:00:00 14 8 Noroeste 20 Oeste 0 905.2 0 35
2018-12-09 16:00:00 15.8 10 Oeste 23 Oeste 0 904.8 -1 30
2018-12-09 15:00:00 16.2 8 Noroeste 18 Noroeste 0 904.8 -1.4 36
2018-12-09 14:00:00 15.2 5 Noroeste 13 Noroeste 0 905.2 -1.4 47
2018-12-09 13:00:00 13 4 Noroeste 12 Noroeste 0 905.8 -0.4 63
2018-12-09 12:00:00 11.7 6 Noroeste 14 Oeste 0 906.2 0.3 70
2018-12-09 11:00:00 9.6 6 Norte 15 Noroeste 0 906.6 1.3 77
2018-12-09 10:00:00 6.8 6 Norte 15 Norte 0 906.2 1.2 87
2018-12-09 09:00:00 2.2 2 Sudeste 8 Noroeste 0 905.9 1.2 87
2018-12-09 08:00:00 3.2 5 Noroeste 14 Nordeste 0 905.3 0.6 87
2018-12-09 07:00:00 3.8 6 Norte 12 Norte 0 905 -0.2 88
2018-12-09 06:00:00 4.4 0 Calma 9 Oeste 0 904.7 -0.6 77
2018-12-09 05:00:00 5.8 4 Noroeste 15 Oeste 0 904.7 -0.6 72
2018-12-09 04:00:00 6.8 8 Noroeste 20 Oeste 0 905.2 -0.3 64
2018-12-09 03:00:00 7.2 13 Oeste 31 Oeste 0 905.3 0 57
2018-12-09 02:00:00 6.9 18 Oeste 26 Oeste 0 905.3 0.1 66
2018-12-09 01:00:00 6.4 8 Sudoeste 17 Oeste 0 905.5 0.5 67
2018-12-09 00:00:00 5.4 3 Oeste 19 Noroeste 0 905.3 0.1 66
2018-12-08 23:00:00 5.2 5 Nordeste 14 Oeste 0 905.2 0.3 72
2018-12-08 22:00:00 5.3 5 Oeste 10 Oeste 0 905 0.2 74
2018-12-08 21:00:00 5.7 5 Oeste 13 Oeste 0 905.2 0.7 76
2018-12-08 20:00:00 6.2 5 Oeste 17 Oeste 0 904.9 0.7 77
2018-12-08 19:00:00 7.3 8 Oeste 15 Oeste 0 904.8 0.8 70
2018-12-08 18:00:00 8.3 7 Oeste 19 Oeste 0 904.5 0.3 67
2018-12-08 17:00:00 10.2 12 Oeste 21 Sudoeste 0 904.2 0 60
2018-12-08 16:00:00 12 11 Oeste 19 Oeste 0 904 -0.7 53
2018-12-08 15:00:00 12.3 8 Oeste 21 Oeste 0 904.2 -1.4 53
2018-12-08 14:00:00 11.1 10 Noroeste 24 Norte 0 904.2 -1.7 61
2018-12-08 13:00:00 10 10 Noroeste 26 Noroeste 0 904.7 -0.6 67
2018-12-08 12:00:00 8.1 10 Noroeste 28 Noroeste 0 905.6 1.4 74
2018-12-08 11:00:00 6.4 7 Oeste 13 Oeste 0 905.9 2.5 86
2018-12-08 10:00:00 5.1 2 Noroeste 8 Noroeste 0 905.3 1.5 93
2018-12-08 09:00:00 4.2 3 Noroeste 14 Oeste 0 904.2 1.3 95
2018-12-08 08:00:00 4.7 12 Oeste 18 Oeste 0 903.4 0.6 91
2018-12-08 07:00:00 4.9 0 Calma 14 Oeste 0 903.8 0.8 93
2018-12-08 06:00:00 5.3 9 Oeste 20 Sudoeste 0 902.9 0 94
2018-12-08 05:00:00 5.6 5 Oeste 14 Oeste 0 902.8 0 94
2018-12-08 04:00:00 6.2 7 Oeste 17 Oeste 0 903 -0.1 93
2018-12-08 03:00:00 6.2 6 Oeste 19 Oeste 0 902.9 -0.4 93
2018-12-08 02:00:00 6.5 10 Oeste 16 Oeste 0 902.8 -0.4 93
2018-12-08 01:00:00 6.9 10 Oeste 18 Oeste 0 903.1 -0.1 92
2018-12-08 00:00:00 7.3 3 Noroeste 14 Oeste 0 903.3 0.3 89
2018-12-07 23:00:00 7.3 5 Oeste 15 Oeste 0 903.2 0.3 89
2018-12-07 22:00:00 7.1 9 Oeste 22 Oeste 0 903.2 0.6 87
2018-12-07 21:00:00 7 9 Oeste 19 Oeste 0 903 0.5 87
2018-12-07 20:00:00 7.8 13 Oeste 26 Oeste 0 902.9 1.5 83
2018-12-07 19:00:00 7.9 13 Oeste 27 Sudoeste 0 902.6 1.4 81
2018-12-07 18:00:00 8.6 9 Sudoeste 27 Sudoeste 0 902.5 1.1 75
2018-12-07 17:00:00 10.9 11 Oeste 29 Oeste 0 901.4 -0.4 60
2018-12-07 16:00:00 12.6 13 Oeste 34 Oeste 0 901.2 -1.1 55
2018-12-07 15:00:00 12.3 15 Oeste 28 Oeste 0 901.4 -1.5 59
2018-12-07 14:00:00 10.6 17 Sudoeste 33 Oeste 0 901.8 -1.2 67
2018-12-07 13:00:00 9.5 18 Oeste 33 Oeste 0 902.3 -1.1 70
2018-12-07 12:00:00 8.7 17 Oeste 29 Oeste 0 902.9 0.1 71
2018-12-07 11:00:00 6.3 3 Oeste 10 Noroeste 0 903 0.4 82
2018-12-07 10:00:00 1.5 3 Noroeste 8 Norte 0 903.4 1.1 98
2018-12-07 09:00:00 -1.5 3 Noroeste 8 Nordeste 0 902.8 0.3 96
2018-12-07 08:00:00 0 3 Norte 7 Norte 0 902.6 -0.1 93
2018-12-07 07:00:00 0.5 2 Noroeste 6 Noroeste 0 902.3 -0.7 94
2018-12-07 06:00:00 0.8 3 Noroeste 8 Noroeste 0 902.5 -0.8 95
2018-12-07 05:00:00 0.9 2 Norte 6 Noroeste 0 902.7 -0.9 92
2018-12-07 04:00:00 1.9 4 Oeste 11 Norte 0 903 -0.9 94
2018-12-07 03:00:00 2 4 Noroeste 8 Oeste 0 903.3 -1 92
2018-12-07 02:00:00 2.5 4 Oeste 12 Noroeste 0 903.6 -0.7 92
2018-12-07 01:00:00 2.5 6 Norte 15 Noroeste 0 903.9 -0.6 94
2018-12-07 00:00:00 2.7 9 Oeste 17 Oeste 0 904.3 -0.2 93
2018-12-06 23:00:00 3.2 8 Oeste 16 Oeste 0 904.3 -0.3 92
2018-12-06 22:00:00 4.3 4 Oeste 14 Oeste 0 904.5 0.4 89
2018-12-06 21:00:00 5 8 Oeste 13 Oeste 0 904.5 0.6 87
2018-12-06 20:00:00 6.2 5 Oeste 16 Noroeste 0 904.6 1 79
2018-12-06 19:00:00 7.6 7 Noroeste 18 Oeste 0 904.1 0.6 72
2018-12-06 18:00:00 8.7 9 Oeste 21 Oeste 0 903.9 0.2 76
2018-12-06 17:00:00 11.4 11 Oeste 28 Oeste 0 903.6 -0.1 61
2018-12-06 16:00:00 13 14 Oeste 28 Oeste 0 903.5 -0.9 62
2018-12-06 15:00:00 13.3 18 Oeste 28 Oeste 0 903.7 -1.2 63
2018-12-06 14:00:00 13.8 17 Oeste 31 Oeste 0 903.7 -1.4 64
2018-12-06 13:00:00 14.3 14 Oeste 24 Noroeste 0 904.4 -0.6 63
2018-12-06 12:00:00 13.5 11 Noroeste 25 Sudoeste 0 904.9 0.2 66
2018-12-06 11:00:00 11.5 6 Oeste 19 Oeste 0 905.1 1 74
2018-12-06 10:00:00 8.3 2 Noroeste 6 Sudeste 0 905 1.5 88
2018-12-06 09:00:00 4.2 0 Calma 6 Oeste 0 904.7 1.1 96
2018-12-06 08:00:00 3.9 2 Sudeste 18 Oeste 0 904.1 0.6 92
2018-12-06 07:00:00 6.9 7 Noroeste 19 Oeste 0 903.5 0 91
2018-12-06 06:00:00 6.5 4 Norte 24 Oeste 0 903.6 0 86
2018-12-06 05:00:00 7.4 8 Noroeste 26 Oeste 0 903.5 0.1 92
2018-12-06 04:00:00 7.5 12 Noroeste 27 Oeste 0 903.5 -0.4 91
2018-12-06 03:00:00 8.1 10 Noroeste 27 Oeste 0 903.6 -0.3 88
2018-12-06 02:00:00 7.7 12 Oeste 23 Oeste 0 903.4 -0.3 87
2018-12-06 01:00:00 6.2 2 Oeste 17 Oeste 0 903.9 0.4 84
2018-12-06 00:00:00 7.6 8 Oeste 17 Oeste 0 903.9 0.7 80
2018-12-05 23:00:00 8.2 5 Oeste 28 Oeste 0 903.7 0.9 76
2018-12-05 22:00:00 9.9 16 Oeste 29 Oeste 0 903.5 1.6 70
2018-12-05 21:00:00 9.9 12 Oeste 23 Oeste 0 903.2 1.7 70
2018-12-05 20:00:00 8.9 2 Oeste 12 Oeste 0 902.8 1.2 68
2018-12-05 19:00:00 10.9 7 Oeste 19 Oeste 0 901.9 0.8 61
2018-12-05 18:00:00 13.4 12 Oeste 35 Oeste 0 901.5 -0.1 50
2018-12-05 17:00:00 15.8 18 Oeste 36 Oeste 0 901.6 -0.1 40
2018-12-05 16:00:00 17.3 18 Oeste 34 Oeste 0 901.1 -0.9 39
2018-12-05 15:00:00 18.3 17 Oeste 29 Oeste 0 901.6 -1 42
2018-12-05 14:00:00 18.3 13 Oeste 22 Oeste 0 901.7 -1.1 49
2018-12-05 13:00:00 15.3 6 Sur 9 Sur 0 902 -0.6 69
2018-12-05 12:00:00 11.1 3 Sudeste 8 Este 0 902.6 0.4 76
2018-12-05 11:00:00 7.6 3 Este 6 Este 0 902.8 0.9 87
2018-12-05 10:00:00 3.7 0 Calma 3 Noroeste 0 902.6 1.2 97
2018-12-05 09:00:00 -0.3 0 Calma 3 Sudeste 0 902.2 0.8 98
2018-12-05 08:00:00 -0.4 0 Calma 4 Este 0 901.9 0.6 96
2018-12-05 07:00:00 0.6 0 Calma 4 Norte 0 901.4 0 97
2018-12-05 06:00:00 0.5 0 Calma 5 Nordeste 0 901.4 0 96
2018-12-05 05:00:00 1.2 2 Norte 4 Norte 0 901.3 0 96
2018-12-05 04:00:00 1.8 0 Calma 3 Noroeste 0 901.4 -0.3 97
2018-12-05 03:00:00 2.1 2 Noroeste 6 Nordeste 0 901.4 -0.3 97
2018-12-05 02:00:00 3.2 2 Norte 5 Noroeste 0 901.3 -0.3 97
2018-12-05 01:00:00 3.6 0 Calma 3 Noroeste 0 901.7 0.4 97
2018-12-05 00:00:00 4.3 0 Calma 3 Noroeste 0 901.7 0.6 95
2018-12-04 23:00:00 5.1 0 Calma 5 Nordeste 0 901.6 0.7 96
2018-12-04 22:00:00 6 0 Calma 5 Norte 0 901.3 0.7 96
2018-12-04 21:00:00 6.5 0 Calma 2 Este 0 901.1 0.8 94
2018-12-04 20:00:00 7.8 0 Calma 3 Noroeste 0 900.9 0.7 92
2018-12-04 19:00:00 8.6 0 Calma 4 Norte 0 900.6 0.2 90
2018-12-04 18:00:00 10.3 0 Calma 6 Norte 0 900.3 -0.4 83
2018-12-04 17:00:00 12.3 3 Norte 7 Nordeste 0 900.2 -0.8 79
2018-12-04 16:00:00 14.6 2 Sudoeste 8 Norte 0 900.4 -1.1 74
2018-12-04 15:00:00 12.2 2 Oeste 7 Sudeste 0 900.7 -1.3 81
2018-12-04 14:00:00 9.8 4 Sudeste 8 Este 0 901 -1.3 92
2018-12-04 13:00:00 8.7 2 Nordeste 6 Sur 0 901.5 -0.3 98
2018-12-04 12:00:00 8.1 3 Sudeste 8 Sudeste 0 902 0.4 98
2018-12-04 11:00:00 7.5 2 Nordeste 6 Este 0 902.3 1.3 98
2018-12-04 10:00:00 6.9 3 Este 7 Este 0 901.8 1 99
2018-12-04 09:00:00 6.5 0 Calma 3 Sudeste 0 901.6 0.8 97
2018-12-04 08:00:00 6.6 3 Nordeste 6 Nordeste 0 901 0.3 97
2018-12-04 07:00:00 6.9 2 Este 7 Nordeste 0 900.8 0 96
2018-12-04 06:00:00 6.7 0 Calma 7 Este 0 900.8 -0.3 96
2018-12-04 05:00:00 6.9 4 Este 7 Sudeste 0 900.7 -0.1 95
2018-12-04 04:00:00 7.6 4 Este 6 Este 0 900.8 -0.4 96
2018-12-04 03:00:00 8.3 2 Sudeste 8 Noroeste 0 901.1 -0.1 94
2018-12-04 02:00:00 9.4 3 Noroeste 14 Oeste 0 900.8 -0.3 93
2018-12-04 01:00:00 9.4 8 Oeste 15 Oeste 0 901.2 0.2 95
2018-12-04 00:00:00 8.7 0 Calma 6 Norte 0 901.2 0.2 96
2018-12-03 23:00:00 8.5 2 Noroeste 9 Norte 0 901.1 0.1 96
2018-12-03 22:00:00 8.6 3 Norte 14 Norte 0 901 0.6 95
2018-12-03 21:00:00 8.4 4 Norte 9 Noroeste 0 901 1.1 93
2018-12-03 20:00:00 9.2 0 Calma 27 Oeste 0 901 1.3 89
2018-12-03 19:00:00 9.9 10 Oeste 24 Oeste 0 900.4 1.1 89
2018-12-03 18:00:00 10.4 12 Oeste 26 Oeste 0 899.9 0.2 87
2018-12-03 17:00:00 11 7 Sudoeste 27 Oeste 0 899.7 -0.1 85
2018-12-03 16:00:00 11.9 13 Oeste 24 Oeste 0 899.3 -0.1 79
2018-12-03 15:00:00 11.9 13 Oeste 23 Oeste 0 899.7 -0.2 78
2018-12-03 14:00:00 12.3 10 Oeste 25 Oeste 0 899.8 -0.1 77
2018-12-03 13:00:00 12.2 12 Oeste 25 Oeste 0 899.4 0.2 76
2018-12-03 12:00:00 9.8 14 Oeste 32 Sudoeste 0 899.9 0.9 82
2018-12-03 11:00:00 9.7 5 Oeste 21 Oeste 0 899.9 1.1 83
2018-12-03 10:00:00 7.2 12 Oeste 21 Noroeste 0 899.2 0.3 92
2018-12-03 09:00:00 6.6 7 Oeste 17 Noroeste 0 899 0.3 93
2018-12-03 08:00:00 6.2 8 Oeste 15 Oeste 0 898.8 0.1 93
2018-12-03 07:00:00 6.5 5 Sudoeste 31 Oeste 0 898.9 0.2 89
2018-12-03 06:00:00 6.8 17 Oeste 36 Oeste 0 898.7 0 89
2018-12-03 05:00:00 6.9 9 Oeste 30 Oeste 0 898.7 -0.4 88
2018-12-03 04:00:00 7.2 15 Noroeste 51 Oeste 0 898.7 -0.4 87
2018-12-03 03:00:00 7.5 30 Oeste 51 Oeste 0 898.7 -0.5 85
2018-12-03 02:00:00 7.8 17 Noroeste 42 Oeste 0 899.1 -0.1 83
2018-12-03 01:00:00 7.5 19 Noroeste 40 Norte 0 899.1 0.1 84
2018-12-03 00:00:00 7.3 13 Noroeste 30 Oeste 0 899.2 0.1 85
2018-12-02 23:00:00 7.6 18 Oeste 37 Oeste 0 899.2 0.4 81
2018-12-02 22:00:00 7.8 19 Oeste 31 Oeste 0 899 0.5 81
2018-12-02 21:00:00 7.5 15 Oeste 26 Oeste 0 899.1 1.1 80
2018-12-02 20:00:00 7.5 14 Oeste 23 Oeste 0 898.8 0.9 80
2018-12-02 19:00:00 8 10 Oeste 20 Oeste 0 898.5 0.9 75
2018-12-02 18:00:00 9.3 13 Oeste 38 Oeste 0 898 0.5 65
2018-12-02 17:00:00 11.2 21 Oeste 40 Oeste 0 897.9 0 52
2018-12-02 16:00:00 13 21 Oeste 39 Oeste 0 897.6 -0.8 44
2018-12-02 15:00:00 12.9 19 Oeste 36 Oeste 0 897.5 -1.5 47
2018-12-02 14:00:00 12 22 Oeste 41 Oeste 0 897.9 -1 49
2018-12-02 13:00:00 11 14 Oeste 36 Oeste 0 898.4 -0.3 51
2018-12-02 12:00:00 9.8 13 Noroeste 35 Oeste 0 899 0.2 59
2018-12-02 11:00:00 8.8 19 Noroeste 39 Noroeste 0 898.9 0.5 60
2018-12-02 10:00:00 8.6 17 Noroeste 35 Oeste 0 898.7 0.5 63
2018-12-02 09:00:00 7.5 18 Oeste 29 Norte 0 898.8 0.6 73
2018-12-02 08:00:00 6.3 13 Noroeste 48 Noroeste 0 898.4 0.4 84
2018-12-02 07:00:00 6.4 14 Noroeste 33 Oeste 0 898.2 0.3 83
2018-12-02 06:00:00 7.2 10 Noroeste 34 Oeste 0 898.2 -0.1 81
2018-12-02 05:00:00 7 17 Noroeste 37 Noroeste 0 898 -0.4 82
2018-12-02 04:00:00 6.8 16 Noroeste 34 Oeste 0 897.9 -0.4 84
2018-12-02 03:00:00 6.8 13 Noroeste 37 Oeste 0 898.3 0.2 84
2018-12-02 02:00:00 7 19 Oeste 41 Oeste 0 898.4 -0.1 84
2018-12-02 01:00:00 7.1 20 Oeste 37 Oeste 0 898.3 0 85
2018-12-02 00:00:00 7.1 18 Oeste 45 Oeste 0 898.1 0.1 85
2018-12-01 23:00:00 7 21 Oeste 40 Oeste 0 898.5 0.3 86
2018-12-01 22:00:00 7 18 Oeste 39 Oeste 0 898.3 0.1 84
2018-12-01 21:00:00 6.8 19 Oeste 36 Noroeste 0 898 0.1 82
2018-12-01 20:00:00 6.8 15 Oeste 41 Oeste 0 898.2 0.7 81
2018-12-01 19:00:00 6.1 9 Oeste 23 Sudoeste 0 898.2 1.1 83
2018-12-01 18:00:00 6.5 8 Sudoeste 33 Oeste 0 897.9 1.1 80
2018-12-01 17:00:00 7.7 12 Oeste 34 Oeste 0 897.5 0.2 73
2018-12-01 16:00:00 8 18 Oeste 39 Oeste 0 897.1 -0.8 69
2018-12-01 15:00:00 9.9 18 Oeste 38 Oeste 0 896.8 -1.8 59
2018-12-01 14:00:00 9.1 16 Oeste 47 Oeste 0 897.3 -1 64
2018-12-01 13:00:00 6.3 27 Oeste 45 Oeste 0 897.9 -0.2 78
2018-12-01 12:00:00 6.2 13 Oeste 36 Noroeste 0 898.6 0.6 79
2018-12-01 11:00:00 5.9 14 Noroeste 37 Oeste 0 898.3 0.8 81
2018-12-01 10:00:00 5.1 18 Oeste 32 Oeste 0 898.1 0.8 87
2018-12-01 09:00:00 4.5 18 Oeste 36 Oeste 0 898 0.9 88
2018-12-01 08:00:00 4.2 17 Oeste 37 Oeste 0 897.5 0 86
2018-12-01 07:00:00 4 18 Oeste 33 Noroeste 0 897.3 -0.8 86
2018-12-01 06:00:00 3.2 9 Oeste 21 Oeste 0 897.1 -1.2 90
2018-12-01 05:00:00 3 9 Oeste 17 Oeste 0 897.5 -0.7 93
2018-12-01 04:00:00 1.3 2 Sudeste 6 Noroeste 0 898.1 -1.1 91
2018-12-01 03:00:00 0.5 0 Calma 10 Oeste 0 898.3 -1.2 92
2018-12-01 02:00:00 0.8 5 Oeste 8 Sudoeste 0 898.2 -1.1 94
2018-12-01 01:00:00 0.5 4 Oeste 11 Noroeste 0 899.2 0 92
2018-12-01 00:00:00 0.1 3 Noroeste 6 Norte 0 899.5 0.4 89
2018-11-30 23:00:00 1 4 Noroeste 8 Noroeste 0 899.3 0.7 88
2018-11-30 22:00:00 1.4 3 Sur 15 Oeste 0 899.2 1 84
2018-11-30 21:00:00 2.5 7 Noroeste 14 Oeste 0 899.1 1.3 82
2018-11-30 20:00:00 2.6 4 Norte 11 Noroeste 0 898.6 1.2 82
2018-11-30 19:00:00 3.2 5 Sudoeste 20 Oeste 0 898.2 1.2 78
2018-11-30 18:00:00 4.5 12 Oeste 25 Noroeste 0 897.8 1.2 72
2018-11-30 17:00:00 6.7 10 Noroeste 29 Noroeste 0 897.4 1 66
2018-11-30 16:00:00 8.3 10 Noroeste 27 Oeste 0 897 0.5 63
2018-11-30 15:00:00 8.2 11 Noroeste 28 Noroeste 0 896.6 0.1 63
2018-11-30 14:00:00 7.3 18 Oeste 28 Oeste 0 896.4 0 70
2018-11-30 13:00:00 7.9 7 Noroeste 26 Noroeste 0 896.5 0.6 71
2018-11-30 12:00:00 7.4 12 Noroeste 30 Oeste 0 896.5 1.2 72
2018-11-30 11:00:00 6.6 12 Noroeste 29 Oeste 0 896.4 2 77
2018-11-30 10:00:00 5.1 11 Noroeste 29 Noroeste 0 895.9 1.9 86
2018-11-30 09:00:00 3.1 10 Noroeste 22 Noroeste 0 895.3 1.7 91
2018-11-30 08:00:00 2.4 7 Oeste 17 Oeste 0 894.4 1.1 89
2018-11-30 07:00:00 3.1 9 Oeste 22 Oeste 0 894 0.7 87
2018-11-30 06:00:00 3.4 7 Noroeste 14 Noroeste 0 893.6 0.3 94
2018-11-30 05:00:00 3.8 8 Oeste 17 Sudoeste 0 893.3 -0.4 94
2018-11-30 04:00:00 4.2 9 Oeste 16 Oeste 0 893.3 -0.7 95
2018-11-30 03:00:00 3.9 7 Sudoeste 12 Oeste 0 893.3 -1.1 95
2018-11-30 02:00:00 4.8 6 Oeste 11 Oeste 0.2 893.7 -1.1 93
2018-11-30 01:00:00 5.2 3 Norte 8 Noroeste 0 894 -0.8 89
2018-11-30 00:00:00 5.5 5 Oeste 10 Oeste 0 894.4 -0.6 90
2018-11-29 23:00:00 5.8 6 Oeste 14 Oeste 0.2 894.8 0.2 90
2018-11-29 22:00:00 6.5 8 Oeste 27 Oeste 0.6 894.8 0.4 87
2018-11-29 21:00:00 7.6 13 Noroeste 31 Oeste 0 895 1 79
2018-11-29 20:00:00 7.8 8 Oeste 13 Oeste 0 894.6 0.6 59
2018-11-29 19:00:00 8.4 5 Sudoeste 11 Sudoeste 0 894.4 0 58
2018-11-29 18:00:00 9.5 8 Oeste 14 Oeste 0 894 -0.6 54
2018-11-29 17:00:00 10.9 6 Sudoeste 12 Oeste 0 894 -1.3 51
2018-11-29 16:00:00 12.7 8 Sudoeste 21 Oeste 0 894.4 -1.1 43
2018-11-29 15:00:00 14.1 10 Oeste 17 Oeste 0 894.6 -1.6 39
2018-11-29 14:00:00 12.4 9 Sudoeste 15 Sudoeste 0 895.3 -1.8 47
2018-11-29 13:00:00 12.5 6 Sudoeste 14 Sudoeste 0 895.5 -1.9 51
2018-11-29 12:00:00 9.2 9 Sudoeste 15 Sudoeste 0 896.2 -1.1 64
2018-11-29 11:00:00 4.9 3 Sur 6 Noroeste 0 897.1 -0.1 74
2018-11-29 10:00:00 2.5 2 Norte 5 Norte 0 897.4 0.5 78
2018-11-29 09:00:00 -1.9 4 Oeste 10 Oeste 0 897.3 0.3 93
2018-11-29 08:00:00 -3 0 Calma 3 Noroeste 0 897.2 0.1 90
2018-11-29 07:00:00 -3.1 0 Calma 5 Este 0 896.9 -0.2 89
2018-11-29 06:00:00 -2.3 0 Calma 5 Norte 0 897 0.1 89
2018-11-29 05:00:00 -2.5 4 Noroeste 5 Noroeste 0 897.1 0 89
2018-11-29 04:00:00 -1.7 0 Calma 5 Sudeste 0 897.1 -0.5 83
2018-11-29 03:00:00 -0.2 0 Calma 6 Sudoeste 0 896.9 -1.2 88
2018-11-29 02:00:00 -0.9 0 Calma 4 Sudeste 0 897.1 -1.2 81
2018-11-29 01:00:00 0.2 0 Calma 4 Oeste 0 897.6 -0.7 79
2018-11-29 00:00:00 1.3 2 Noroeste 5 Este 0 898.1 -0.3 77
2018-11-28 23:00:00 3.3 5 Sudoeste 13 Sudoeste 0 898.3 0 71
2018-11-28 22:00:00 2.9 3 Oeste 6 Oeste 0 898.3 -0.1 60
2018-11-28 21:00:00 4 2 Sudeste 6 Sudoeste 0 898.4 0.1 56
2018-11-28 13:00:00 13.8 11 Oeste 30 Oeste 0 899.1 -0.1 32
2018-11-28 12:00:00 12.7 13 Oeste 27 Oeste 0 899.5 0.5 29
2018-11-28 11:00:00 12.2 11 Oeste 21 Oeste 0 899.4 0.6 26
2018-11-28 10:00:00 9.1 5 Sudeste 21 Oeste 0 899.2 0.7 49
2018-11-28 09:00:00 5.4 6 Sudoeste 15 Sudoeste 0 899 0.6 63
2018-11-28 08:00:00 4.8 6 Sudoeste 17 Oeste 0 898.8 0.6 60
2018-11-28 07:00:00 4.4 4 Sudeste 14 Oeste 0 898.5 0.3 59
2018-11-28 06:00:00 4.3 6 Sudoeste 16 Oeste 0 898.4 0.1 66
2018-11-28 05:00:00 4.4 8 Oeste 15 Oeste 0 898.2 -0.2 64
2018-11-28 04:00:00 2.7 3 Sudeste 8 Sudoeste 0 898.2 -0.5 71
2018-11-28 03:00:00 3.7 4 Sudoeste 16 Sudoeste 0 898.3 -0.4 68
2018-11-28 02:00:00 3.8 6 Sudoeste 12 Sudoeste 0 898.4 -0.2 69
2018-11-28 01:00:00 3.7 6 Sudoeste 12 Sudoeste 0 898.7 -0.1 73
2018-11-28 00:00:00 4.1 4 Oeste 13 Sudoeste 0 898.7 0.1 70
2018-11-27 23:00:00 4.1 5 Sudoeste 15 Sudoeste 0 898.6 -0.3 66
2018-11-27 22:00:00 4.7 5 Sudoeste 11 Oeste 0 898.8 0.1 63
2018-11-27 21:00:00 5 4 Sur 7 Sudeste 0 898.6 0.3 64
2018-11-27 20:00:00 6 5 Oeste 22 Oeste 0 898.9 0.7 57
2018-11-27 19:00:00 6.4 7 Oeste 23 Oeste 0 898.7 0.8 51
2018-11-27 18:00:00 7.4 9 Oeste 24 Oeste 0 898.3 0.6 52
2018-11-27 17:00:00 8.6 14 Oeste 25 Oeste 0 898.2 0.3 61
2018-11-27 16:00:00 10.1 12 Oeste 23 Sudoeste 0 897.9 -0.4 50
2018-11-27 15:00:00 11.3 10 Sudoeste 23 Oeste 0 897.7 -1 51
2018-11-27 14:00:00 11.6 10 Sudoeste 22 Oeste 0 897.9 -0.4 48
2018-11-27 13:00:00 10.8 9 Oeste 19 Oeste 0 898.3 0 48
2018-11-27 12:00:00 9.2 7 Norte 17 Oeste 0 898.7 0.6 60
2018-11-27 11:00:00 7 10 Noroeste 24 Noroeste 0 898.3 0.3 69
2018-11-27 10:00:00 4.8 5 Norte 14 Noroeste 0 898.3 0.6 81
2018-11-27 09:00:00 1.3 2 Oeste 16 Oeste 0 898.1 0.2 92
2018-11-27 08:00:00 0.4 2 Sur 10 Sudoeste 0 898 0.4 95
2018-11-27 07:00:00 0.9 9 Oeste 27 Oeste 0 897.7 0 97
2018-11-27 06:00:00 1 9 Sudoeste 16 Oeste 0 897.9 0.1 97
2018-11-27 05:00:00 1.6 4 Oeste 14 Oeste 0 897.6 0 88
2018-11-27 04:00:00 3.1 6 Oeste 13 Oeste 0 897.7 0.5 85
2018-11-27 03:00:00 3.8 6 Noroeste 14 Noroeste 0 897.8 0.6 84
2018-11-27 02:00:00 4.6 5 Norte 11 Oeste 0 897.6 0.6 85
2018-11-27 01:00:00 4.3 8 Oeste 18 Oeste 0 897.2 1 87
2018-11-27 00:00:00 4.6 12 Oeste 23 Oeste 0 897.2 1.4 85
2018-11-26 23:00:00 4.2 7 Sudoeste 14 Sudoeste 0 897 2 86
2018-11-26 22:00:00 4.5 6 Oeste 24 Norte 0 896.2 2.2 82
2018-11-26 21:00:00 4.6 8 Norte 23 Noroeste 0 895.8 2.6 82
2018-11-26 20:00:00 4.2 5 Norte 17 Noroeste 0 895 2.6 86
2018-11-26 19:00:00 4.8 7 Norte 22 Oeste 0 894 2.3 85
2018-11-26 18:00:00 5.4 12 Oeste 29 Oeste 0 893.2 1.9 81
2018-11-26 17:00:00 6.6 15 Noroeste 32 Noroeste 0 892.4 1.8 77
2018-11-26 16:00:00 6.9 14 Noroeste 29 Oeste 0 891.7 1.7 73
2018-11-26 15:00:00 9 11 Noroeste 30 Oeste 0 891.3 1.3 64
2018-11-26 14:00:00 7.8 12 Oeste 31 Oeste 0 890.6 1.4 65
2018-11-26 13:00:00 8.7 11 Noroeste 30 Oeste 0 890 1.8 65
2018-11-26 12:00:00 7.3 9 Noroeste 26 Noroeste 0 890 2.9 74
2018-11-26 11:00:00 3.9 11 Noroeste 23 Oeste 0 889.2 3.6 86
2018-11-26 10:00:00 3.7 10 Noroeste 28 Norte 0 888.2 4.2 86
2018-11-26 09:00:00 2.8 8 Noroeste 24 Oeste 0 887.1 5 91
2018-11-26 08:00:00 2.6 7 Norte 42 Noroeste 0 885.6 4.5 92
2018-11-26 07:00:00 3.4 15 Noroeste 47 Oeste 0 884 2.5 89
2018-11-26 06:00:00 4.5 23 Oeste 44 Oeste 0.8 882.1 0.7 88
2018-11-26 05:00:00 5.2 16 Oeste 35 Oeste 1 881.1 -0.6 94
2018-11-26 04:00:00 4.7 5 Oeste 12 Oeste 1.2 881.5 -1.1 96
2018-11-26 03:00:00 4.9 2 Noroeste 6 Sudoeste 0.6 881.4 -2.5 95
2018-11-26 02:00:00 5 3 Sudoeste 5 Sur 0.2 881.7 -2.5 95
2018-11-26 01:00:00 5 5 Sur 10 Oeste 0.6 882.6 -2.2 94
2018-11-26 00:00:00 5.1 4 Oeste 10 Norte 1 883.9 -1.1 90
2018-11-25 23:00:00 5.3 4 Norte 10 Nordeste 0.6 884.2 -0.9 86
2018-11-25 22:00:00 5.7 4 Noroeste 8 Noroeste 0 884.8 -0.2 78
2018-11-25 21:00:00 5.4 5 Oeste 12 Oeste 0 885 -0.3 79
2018-11-25 20:00:00 5.7 5 Oeste 13 Norte 0 885.1 -0.3 75
2018-11-25 19:00:00 6 9 Oeste 15 Oeste 0 885 -0.3 73
2018-11-25 18:00:00 6.9 8 Sudoeste 22 Oeste 0 885.3 -0.4 70
2018-11-25 17:00:00 9.2 13 Oeste 26 Oeste 0 885.4 -0.8 55
2018-11-25 16:00:00 11.7 8 Noroeste 29 Oeste 0 885.3 -1 40
2018-11-25 15:00:00 11.5 17 Oeste 35 Oeste 0 885.7 -1 39
2018-11-25 14:00:00 11 14 Noroeste 39 Oeste 0 886.2 -0.4 51
2018-11-25 13:00:00 10.2 17 Oeste 31 Oeste 0 886.3 0.2 62
2018-11-25 12:00:00 9.1 10 Noroeste 26 Oeste 0 886.7 1.1 74
2018-11-25 11:00:00 8.3 6 Noroeste 21 Noroeste 0 886.6 1.7 87
2018-11-25 10:00:00 7.2 5 Noroeste 21 Oeste 0.2 886.1 1.4 94
2018-11-25 09:00:00 6.7 11 Oeste 24 Oeste 1 885.6 1.1 94
2018-11-25 08:00:00 6 8 Oeste 18 Sudoeste 0.4 884.9 0.5 100
2018-11-25 07:00:00 4.7 8 Sudoeste 23 Sudoeste 1 884.7 -0.7 98
2018-11-25 06:00:00 4.5 13 Sudoeste 27 Sudoeste 0.6 884.5 -1.7 97
2018-11-25 05:00:00 4.3 13 Sudoeste 33 Sudoeste 0.6 884.4 -2.3 97
2018-11-25 04:00:00 4.3 13 Sudoeste 31 Sudoeste 0.4 885.4 -1.7 95
2018-11-25 03:00:00 4.3 13 Sudoeste 28 Sur 0.8 886.2 -1.7 96
2018-11-25 02:00:00 4.4 15 Sudoeste 31 Sudoeste 0.2 886.7 -2.1 93
2018-11-25 01:00:00 4.2 11 Sudoeste 30 Sudoeste 0 887.1 -2.1 92
2018-11-25 00:00:00 3.3 9 Sudoeste 14 Sudoeste 0 887.9 -1.7 94
2018-11-24 23:00:00 1.9 3 Sur 10 Sur 0 888.8 -1.1 92
2018-11-24 22:00:00 2.4 5 Sudoeste 17 Oeste 0 889.2 -0.7 89
2018-11-24 21:00:00 2 6 Sudoeste 14 Oeste 0 889.6 -0.6 90
2018-11-24 20:00:00 2.5 9 Sudoeste 24 Sudoeste 0 889.9 -0.4 89
2018-11-24 19:00:00 2.8 8 Sudoeste 23 Sudoeste 0 889.9 -0.4 89
2018-11-24 18:00:00 3.8 9 Sudoeste 22 Sur 0 890.2 -0.6 85
2018-11-24 17:00:00 6.6 16 Sur 24 Sur 0 890.3 -1.1 74
2018-11-24 16:00:00 7.4 10 Sur 20 Oeste 0 890.3 -1.7 74
2018-11-24 15:00:00 7.6 11 Sudoeste 25 Sudoeste 0 890.8 -1.7 72
2018-11-24 14:00:00 7.8 13 Oeste 31 Oeste 0 891.4 -1.1 69
2018-11-24 13:00:00 7.5 16 Oeste 30 Oeste 0 892 -0.3 74
2018-11-24 12:00:00 7 10 Sudoeste 18 Sudoeste 0 892.5 0.2 79
2018-11-24 11:00:00 3.3 9 Sur 14 Sur 0 892.5 0.7 93
2018-11-24 10:00:00 2.3 5 Sudoeste 19 Oeste 0 892.3 0.7 94
2018-11-24 09:00:00 1.2 9 Sudoeste 18 Sur 0 892.3 0.7 93
2018-11-24 08:00:00 1.3 8 Sur 14 Sudoeste 0 891.8 0.4 92
2018-11-24 07:00:00 1.3 6 Sudoeste 13 Sur 0 891.6 -0.3 93
2018-11-24 06:00:00 1.6 7 Sur 13 Sur 0 891.6 -0.3 91
2018-11-24 05:00:00 2.2 2 Norte 8 Sudoeste 0 891.4 -1 91
2018-11-24 04:00:00 1.9 4 Noroeste 9 Oeste 0 891.9 -0.7 92
2018-11-24 03:00:00 2 7 Oeste 12 Oeste 0 891.9 -0.6 90
2018-11-24 02:00:00 1.9 6 Sudoeste 12 Oeste 0 892.4 0.4 91
2018-11-24 01:00:00 1.9 5 Oeste 13 Oeste 0 892.6 1 90
2018-11-24 00:00:00 2 5 Noroeste 14 Oeste 0 892.5 1.3 91
2018-11-23 23:00:00 1.6 6 Sudoeste 14 Oeste 0 892 1 92
2018-11-23 22:00:00 2.4 9 Sudoeste 14 Sudoeste 0 891.6 0.8 89
2018-11-23 21:00:00 2.5 7 Sudoeste 11 Sudoeste 0 891.2 0.8 89
2018-11-23 20:00:00 3.1 5 Oeste 6 Oeste 0 891 0.9 86
2018-11-23 19:00:00 4.1 4 Sudoeste 10 Oeste 0 890.8 1.2 81
2018-11-23 18:00:00 5.6 6 Oeste 24 Oeste 0 890.4 0.9 74
2018-11-23 17:00:00 7.3 13 Oeste 29 Oeste 0 890.1 0.6 66
2018-11-23 16:00:00 8.5 15 Oeste 32 Oeste 0 889.6 -0.1 63
2018-11-23 15:00:00 7 15 Oeste 32 Oeste 0 889.5 -0.8 75
2018-11-23 14:00:00 6.8 17 Oeste 35 Oeste 0 889.5 -0.9 76
2018-11-23 13:00:00 6.3 15 Oeste 32 Oeste 0 889.7 -0.6 76
2018-11-23 12:00:00 5.9 14 Sudoeste 29 Oeste 0 890.3 0.4 84
2018-11-23 11:00:00 3.9 13 Oeste 30 Oeste 0 890.4 0.9 93
2018-11-23 10:00:00 2.5 12 Oeste 21 Oeste 0.2 890.3 1.3 95
2018-11-23 09:00:00 2.5 12 Oeste 18 Sudoeste 0.2 889.9 1.4 93
2018-11-23 08:00:00 3.4 9 Oeste 28 Oeste 0 889.5 0.7 92
2018-11-23 07:00:00 3.9 14 Noroeste 28 Oeste 1.2 889 -0.2 90
2018-11-23 06:00:00 4.8 7 Sur 16 Sur 1.2 888.5 -1.1 97
2018-11-23 05:00:00 4.9 9 Sur 17 Sur 0.8 888.8 -1.1 96
2018-11-23 04:00:00 5.1 7 Sur 13 Sur 0.8 889.2 -1.4 95
2018-11-23 03:00:00 5.1 6 Sudeste 12 Sudeste 0 889.6 -1.3 95
2018-11-23 02:00:00 4.9 4 Sudoeste 11 Sur 0 889.9 -1.2 94
2018-11-23 01:00:00 4.9 4 Sur 9 Sudoeste 0 890.6 -0.7 94
2018-11-23 00:00:00 4.9 4 Sur 6 Sudoeste 0 890.9 -0.3 93
2018-11-22 23:00:00 5.3 4 Sudoeste 19 Sur 0 891.1 -0.5 90
2018-11-22 22:00:00 5.6 11 Sur 22 Sur 0 891.3 0.1 89
2018-11-22 21:00:00 5.5 11 Sur 19 Sur 0 891.2 0.1 90
2018-11-22 20:00:00 5.7 11 Sur 17 Sur 0 891.6 0.6 89
2018-11-22 19:00:00 6 7 Sur 17 Sudoeste 0 891.2 0.2 87
2018-11-22 18:00:00 6.8 12 Sur 23 Sur 0 891.1 -0.1 81
2018-11-22 17:00:00 7.8 8 Sudoeste 19 Oeste 0 891 -0.4 74
2018-11-22 16:00:00 8.3 11 Sudoeste 24 Sudoeste 0 891 -0.8 69
2018-11-22 15:00:00 7.8 12 Sudoeste 26 Sudoeste 0 891.2 -1.3 75
2018-11-22 14:00:00 7.4 14 Sudoeste 27 Sudoeste 0 891.4 -1.3 78
2018-11-22 13:00:00 7.2 15 Sudoeste 24 Sudoeste 0 891.8 -0.7 82
2018-11-22 12:00:00 5.9 9 Sur 20 Sudoeste 0 892.5 0.4 92
2018-11-22 11:00:00 4.8 10 Sur 16 Sudoeste 0 892.7 1 94
2018-11-22 10:00:00 2.7 4 Sur 8 Sur 0 892.5 1.2 97
2018-11-22 09:00:00 1.7 4 Oeste 8 Sur 0 892.1 0.9 97
2018-11-22 08:00:00 1.2 2 Sur 6 Sur 0 891.7 0.6 97
2018-11-22 07:00:00 1.4 5 Sudoeste 7 Oeste 0 891.3 0.1 97
2018-11-22 06:00:00 1.7 5 Sudoeste 12 Sur 0 891.2 0.2 97
2018-11-22 05:00:00 1.8 9 Sur 13 Sur 0 891.1 0.2 97
2018-11-22 04:00:00 1.9 2 Sudoeste 8 Sudoeste 0 891.2 0.2 96
2018-11-22 03:00:00 2.1 4 Sudoeste 6 Sudoeste 0 891 0 95
2018-11-22 02:00:00 2.6 4 Sudoeste 12 Oeste 0 890.9 0.1 93
2018-11-22 01:00:00 3.6 6 Oeste 12 Sudoeste 0 891 0.6 91
2018-11-22 00:00:00 3.8 5 Sudoeste 14 Oeste 0 891 1.1 92
2018-11-21 23:00:00 4 5 Sudoeste 16 Oeste 0 890.8 1.4 92
2018-11-21 22:00:00 3.9 6 Sudoeste 12 Sudoeste 0 890.4 1.3 95
2018-11-21 21:00:00 4.4 8 Sur 12 Sur 0 889.9 1.4 94
2018-11-21 20:00:00 5.2 4 Sur 10 Sudoeste 0 889.4 1.4 91
2018-11-21 19:00:00 5.9 6 Sudoeste 15 Oeste 0 889.1 1.6 87
2018-11-21 18:00:00 6.3 8 Oeste 16 Sudoeste 0 888.5 1.4 86
2018-11-21 17:00:00 6.8 10 Sur 21 Sur 0 888 1 86
2018-11-21 16:00:00 7.7 7 Sudoeste 24 Oeste 0.2 887.5 0.3 81
2018-11-21 15:00:00 9.7 19 Oeste 36 Oeste 0 887.1 -0.1 70
2018-11-21 14:00:00 8.1 14 Oeste 44 Oeste 0.2 887 0.3 78
2018-11-21 13:00:00 7.4 11 Oeste 32 Oeste 0 887.2 1.1 77
2018-11-21 12:00:00 7.2 17 Oeste 30 Sudoeste 0 887.2 1.8 78
2018-11-21 11:00:00 5.9 9 Sudoeste 23 Sudoeste 0.2 886.7 2.1 91
2018-11-21 10:00:00 5.4 11 Sudoeste 19 Sudoeste 0.2 886.1 2.2 94
2018-11-21 09:00:00 5.1 6 Sudoeste 18 Sudoeste 0 885.4 2 94
2018-11-21 08:00:00 5.2 10 Oeste 27 Sudoeste 0 884.6 1.7 93
2018-11-21 07:00:00 5.3 13 Oeste 27 Sudoeste 0 883.9 1.2 95
2018-11-21 06:00:00 5.1 12 Sudoeste 30 Sudoeste 0.6 883.4 0.9 96
2018-11-21 05:00:00 5.2 10 Sudoeste 25 Sudoeste 0.4 882.9 0.8 95
2018-11-21 04:00:00 5.5 10 Oeste 24 Oeste 0.2 882.7 0.7 95
2018-11-21 03:00:00 5.5 9 Sudoeste 23 Oeste 0.2 882.5 1 96
2018-11-21 02:00:00 5.2 13 Oeste 26 Sudoeste 0 882.1 0.9 95
2018-11-21 01:00:00 4.9 15 Oeste 39 Oeste 0.4 882 1.4 92
2018-11-21 00:00:00 5.6 10 Oeste 22 Oeste 0.4 881.5 1.5 94
2018-11-20 23:00:00 5.5 12 Oeste 26 Oeste 0 881.2 1.8 93
2018-11-20 22:00:00 5.5 10 Oeste 28 Sudoeste 0 880.6 1.6 94
2018-11-20 21:00:00 5.6 15 Oeste 33 Oeste 0 880 1.5 92
2018-11-20 20:00:00 5.8 15 Oeste 30 Oeste 0.2 879.4 1.5 92
2018-11-20 19:00:00 4.8 5 Oeste 19 Oeste 0.2 879 2.1 94
2018-11-20 18:00:00 4.9 10 Oeste 26 Oeste 0.8 878.5 1.7 93
2018-11-20 17:00:00 4.8 17 Oeste 33 Oeste 1.4 877.9 1.1 90
2018-11-20 16:00:00 7.9 13 Sudoeste 31 Oeste 0 876.9 -0.1 82
2018-11-20 15:00:00 7.6 13 Sudoeste 29 Sudoeste 0 876.8 -0.7 84
2018-11-20 14:00:00 7.1 18 Oeste 34 Oeste 0 876.8 -0.2 86
2018-11-20 13:00:00 6.7 18 Oeste 36 Oeste 0 877 -0.1 89
2018-11-20 12:00:00 6.5 18 Oeste 40 Sudoeste 0.8 877.5 0.4 92
2018-11-20 11:00:00 6.6 12 Sudoeste 21 Sudoeste 1.4 877 0.3 97
2018-11-20 10:00:00 5.9 13 Oeste 31 Oeste 2.2 877.1 0.4 92
2018-11-20 09:00:00 6.2 11 Oeste 27 Oeste 1.8 877.1 0.2 93
2018-11-20 08:00:00 6.7 10 Oeste 21 Oeste 0.6 876.7 -0.5 95
2018-11-20 07:00:00 6.3 9 Oeste 28 Sudoeste 1.2 876.7 -0.9 93
2018-11-20 06:00:00 6.6 9 Oeste 17 Oeste 0 876.9 -1.1 94
2018-11-20 05:00:00 6.3 5 Sudoeste 12 Sudoeste 0 877.2 -0.9 95
2018-11-20 04:00:00 6.3 6 Oeste 14 Oeste 0 877.6 -0.9 95
2018-11-20 03:00:00 6 5 Oeste 14 Oeste 0 878 -0.7 95
2018-11-20 02:00:00 5.5 7 Oeste 14 Oeste 0 878.1 -0.8 96
2018-11-20 01:00:00 5.3 7 Sudoeste 17 Oeste 0 878.5 -0.7 93
2018-11-20 00:00:00 5.2 7 Oeste 15 Oeste 0 878.7 -0.4 93
2018-11-19 23:00:00 5.6 6 Oeste 13 Oeste 0 878.9 -0.4 91
2018-11-19 22:00:00 6.2 5 Noroeste 10 Noroeste 0 879.2 -0.2 88
2018-11-19 21:00:00 7 4 Sudoeste 8 Oeste 0 879.1 -0.1 85
2018-11-19 20:00:00 7.4 6 Oeste 18 Oeste 0 879.3 0 85
2018-11-19 19:00:00 8.1 9 Oeste 17 Sudoeste 0 879.4 0.1 86
2018-11-19 18:00:00 8.3 4 Noroeste 13 Sudoeste 0 879.2 -0.2 84
2018-11-19 17:00:00 8.9 6 Oeste 18 Oeste 0 879.3 -0.8 82
2018-11-19 16:00:00 9.7 6 Oeste 13 Oeste 0 879.3 -1.6 72
2018-11-19 15:00:00 10.4 4 Sur 13 Sudoeste 0 879.4 -2.1 65
2018-11-19 14:00:00 10.7 5 Sudoeste 10 Oeste 0 880.1 -1.8 68
2018-11-19 13:00:00 9.1 0 Calma 9 Nordeste 0 880.9 -1.2 73
2018-11-19 12:00:00 8.3 3 Noroeste 14 Nordeste 0 881.5 -0.9 80
2018-11-19 11:00:00 7.2 6 Nordeste 11 Nordeste 0 881.9 -0.4 87
2018-11-19 10:00:00 6.6 5 Nordeste 9 Nordeste 0 882.1 -0.4 93
2018-11-19 09:00:00 6.1 3 Nordeste 8 Este 0 882.4 0 96
2018-11-19 08:00:00 5.8 5 Este 10 Nordeste 0 882.3 -0.3 95
2018-11-19 07:00:00 5.8 4 Este 12 Nordeste 0 882.5 -0.2 97
2018-11-19 06:00:00 5.8 6 Este 13 Este 0 882.4 -1.1 96
2018-11-19 05:00:00 6 6 Este 15 Este 0 882.6 -1.2 96
2018-11-19 04:00:00 6.1 9 Este 16 Este 0 882.7 -1.5 96
2018-11-19 03:00:00 6 11 Este 22 Este 0 883.5 -1 97
2018-11-19 02:00:00 6.1 12 Este 24 Este 0.2 883.8 -0.7 96
2018-11-19 01:00:00 6.2 14 Este 29 Este 0 884.2 -0.3 96
2018-11-19 00:00:00 6.2 11 Este 30 Sudeste 0.2 884.5 0.2 96
2018-11-18 23:00:00 6.1 11 Este 27 Este 0.2 884.5 0.2 95
2018-11-18 22:00:00 6.3 11 Sudeste 24 Este 1.2 884.5 0.5 96
2018-11-18 21:00:00 6.3 7 Sudeste 24 Este 0.6 884.3 0.4 96
2018-11-18 20:00:00 6.2 9 Sudeste 34 Este 1.4 884.3 0.4 95
2018-11-18 19:00:00 6.4 14 Sudeste 36 Este 0 884 0.2 96
2018-11-18 18:00:00 6.6 13 Sudeste 38 Sudeste 0 883.9 -0.1 95
2018-11-18 17:00:00 7.4 14 Sudeste 32 Este 0 883.9 -0.4 90
2018-11-18 16:00:00 8.1 12 Este 25 Este 0 883.8 -1.2 88
2018-11-18 15:00:00 9 9 Sudeste 24 Sudeste 0 884 -1.5 85
2018-11-18 14:00:00 9.3 9 Sudeste 22 Este 0 884.3 -1.9 84
2018-11-18 13:00:00 9.2 12 Sudeste 24 Este 0 885 -1.2 87
2018-11-18 12:00:00 9.6 12 Sur 23 Sur 0 885.5 -0.7 85
2018-11-18 11:00:00 8.6 6 Sudeste 14 Este 0 886.2 0.3 89
2018-11-18 10:00:00 7.5 5 Este 9 Este 0 886.2 0.3 97
2018-11-18 09:00:00 6.5 4 Este 7 Nordeste 0 886.2 -0.1 99
2018-11-18 08:00:00 5.7 4 Este 7 Este 0 885.9 -0.7 97
2018-11-18 07:00:00 6.6 2 Noroeste 4 Norte 0 885.9 -1.1 97
2018-11-18 06:00:00 6.7 2 Sur 7 Sur 0 886.3 -1.3 97
2018-11-18 05:00:00 6.6 4 Sudoeste 5 Sudoeste 0 886.6 -1.6 97
2018-11-18 04:00:00 6.8 3 Nordeste 4 Nordeste 0 887 -1.8 98
2018-11-18 03:00:00 6.7 0 Calma 4 Norte 0 887.6 -1.6 98
2018-11-18 02:00:00 6.6 0 Calma 7 Este 0 888.2 -1.5 98
2018-11-18 01:00:00 6.2 2 Nordeste 6 Nordeste 0 888.8 -1.1 93
2018-11-18 00:00:00 7 2 Norte 4 Sudoeste 0 889.2 -1 93
2018-11-17 23:00:00 7.5 2 Oeste 4 Sudoeste 0 889.7 -0.8 92
2018-11-17 22:00:00 8.5 2 Este 5 Nordeste 0 889.9 -0.6 89
2018-11-17 21:00:00 8.6 0 Calma 5 Este 0 890.2 -0.6 88
2018-11-17 20:00:00 9.2 3 Sudoeste 6 Sudoeste 0 890.5 -0.6 87
2018-11-17 19:00:00 10 3 Sudoeste 8 Sudoeste 0 890.5 -0.8 84
2018-11-17 18:00:00 11.2 6 Sudoeste 12 Sur 0 890.8 -0.8 79
2018-11-17 17:00:00 13.8 6 Sur 14 Sur 0 891.1 -1.3 65
2018-11-17 16:00:00 14.8 7 Oeste 14 Sur 0 891.3 -2 60
2018-11-17 15:00:00 15.1 9 Sur 17 Sudoeste 0 891.6 -2.5 60
2018-11-17 14:00:00 13.4 6 Sur 13 Sur 0 892.4 -2.3 71
2018-11-17 13:00:00 13.1 4 Sur 9 Sur 0 893.3 -1.5 75
2018-11-17 12:00:00 9.4 3 Nordeste 6 Sur 0 894.1 -0.9 87
2018-11-17 11:00:00 8.5 3 Sudeste 6 Este 0 894.7 -0.1 94
2018-11-17 10:00:00 7.8 5 Este 8 Este 0 894.8 0 95
2018-11-17 09:00:00 7.5 4 Este 9 Este 0 895 0 97
2018-11-17 08:00:00 7.8 4 Este 6 Este 0 894.8 -0.2 97
2018-11-17 07:00:00 8.1 4 Este 9 Este 0 894.8 -0.4 96
2018-11-17 06:00:00 8.2 5 Este 10 Este 0 895 -0.7 95
2018-11-17 05:00:00 8.4 6 Sur 15 Sudeste 0 895 -0.5 94
2018-11-17 04:00:00 8.7 7 Sudeste 13 Sudeste 0 895.2 -0.7 94
2018-11-17 03:00:00 8.9 3 Sudeste 10 Este 0 895.7 -0.2 95
2018-11-17 02:00:00 9.2 6 Este 14 Sudeste 0 895.5 -0.6 95
2018-11-17 01:00:00 9.4 3 Sudeste 12 Sudeste 0 895.9 -0.2 95
2018-11-17 00:00:00 9.1 5 Sudeste 14 Este 0 895.9 -0.2 97
2018-11-16 23:00:00 9.2 6 Este 17 Sudeste 0 896.1 -0.3 95
2018-11-16 22:00:00 9.3 5 Sudeste 20 Sudeste 0 896.1 -0.1 95
2018-11-16 21:00:00 9.7 8 Este 15 Este 0.6 896.1 0.1 94
2018-11-16 20:00:00 9.9 9 Este 22 Este 0 896.4 0.5 91
2018-11-16 19:00:00 10.4 5 Este 17 Sudeste 0 896.2 0.3 87
2018-11-16 18:00:00 11.7 6 Sudeste 13 Sudeste 0 896 -0.1 82
2018-11-16 17:00:00 12.6 6 Este 18 Sudeste 0 895.9 -0.6 79
2018-11-16 16:00:00 13.6 9 Sudeste 23 Sur 0 895.9 -1.2 74
2018-11-16 15:00:00 15.4 5 Sudeste 14 Este 0 896.1 -1.6 67
2018-11-16 14:00:00 14.2 3 Sudeste 14 Este 0 896.5 -1.2 71
2018-11-16 13:00:00 13.1 6 Este 14 Sudeste 0 897.1 -0.4 77
2018-11-16 12:00:00 11.4 5 Sudeste 13 Nordeste 0 897.7 0.2 88
2018-11-16 11:00:00 10.2 7 Este 13 Sudeste 0 897.7 0.5 93
2018-11-16 10:00:00 9.4 5 Este 12 Este 0 897.5 0.5 97
2018-11-16 09:00:00 8.7 2 Sudeste 7 Este 0 897.5 0.5 95
2018-11-16 08:00:00 8.2 2 Este 5 Sudeste 0 897.2 0.1 95
2018-11-16 07:00:00 8.2 0 Calma 4 Nordeste 0 897 -0.2 94
2018-11-16 06:00:00 7.9 2 Norte 5 Noroeste 0 897 -0.5 95
2018-11-16 05:00:00 7.4 0 Calma 5 Norte 0 897.1 -0.5 95
2018-11-16 04:00:00 7.2 0 Calma 6 Sudeste 0 897.2 -0.8 92
2018-11-16 03:00:00 7.7 3 Este 9 Norte 0 897.5 -0.6 93
2018-11-16 02:00:00 7.7 0 Calma 6 Nordeste 0 897.6 -0.2 94
2018-11-16 01:00:00 8 2 Norte 6 Nordeste 0 898 0.3 96
2018-11-16 00:00:00 7.5 3 Nordeste 5 Nordeste 0 898.1 0.7 96
2018-11-15 23:00:00 7.8 3 Norte 4 Norte 0 897.8 0.8 94
2018-11-15 22:00:00 8.5 3 Este 6 Este 0 897.7 1 92
2018-11-15 21:00:00 9.5 0 Calma 6 Sudeste 0 897.4 1.2 91
2018-11-15 20:00:00 9.5 5 Este 9 Este 0 897 1 90
2018-11-15 19:00:00 10.6 5 Este 17 Este 0 896.7 0.8 84
2018-11-15 18:00:00 12.3 6 Este 14 Este 0 896.2 0 81
2018-11-15 17:00:00 14.1 6 Este 17 Sudeste 0 896 -0.5 68
2018-11-15 16:00:00 13.8 8 Este 17 Sudeste 0 895.9 -0.9 70
2018-11-15 15:00:00 13.9 8 Sudeste 19 Sudeste 0 896.2 -1.2 75
2018-11-15 14:00:00 13.5 6 Sudeste 16 Sudeste 0 896.5 -1 74
2018-11-15 13:00:00 13 6 Sudeste 14 Este 0 896.8 -0.5 75
2018-11-15 12:00:00 12.2 6 Este 11 Este 0 897.4 0.5 79
2018-11-15 11:00:00 10.6 6 Sudeste 12 Sudeste 0 897.5 1 88
2018-11-15 10:00:00 9.3 6 Sudeste 14 Sudeste 0 897.3 1.3 94
2018-11-15 09:00:00 9.2 6 Este 16 Sudeste 0 896.9 1.1 95
2018-11-15 08:00:00 9.1 6 Sur 13 Sudeste 0 896.5 0.6 95
2018-11-15 07:00:00 9.3 3 Sudeste 12 Este 0 896 0 96
2018-11-15 06:00:00 9.2 6 Sudeste 13 Este 0 895.8 -0.5 96
2018-11-15 05:00:00 9.3 7 Sur 14 Sur 0 895.9 -0.7 94
2018-11-15 04:00:00 9 6 Sudeste 11 Sudeste 0 896 -1.2 96
2018-11-15 03:00:00 9 4 Sudeste 12 Sudeste 0 896.3 -1.2 94
2018-11-15 02:00:00 9.7 4 Este 14 Este 0 896.6 -1.2 94
2018-11-15 01:00:00 10 8 Este 14 Sudeste 0 897.2 -0.8 94
2018-11-15 00:00:00 10.3 6 Sudeste 19 Sudeste 0 897.5 -0.6 93
2018-11-14 23:00:00 10.4 6 Sudeste 14 Este 0 897.8 -0.2 93
2018-11-14 22:00:00 10.4 5 Este 20 Este 0 898 -0.2 91
2018-11-14 21:00:00 10.5 6 Este 17 Este 0 898.1 0.2 90
2018-11-14 20:00:00 10.4 7 Sudeste 19 Sudeste 0 898 0 89
2018-11-14 19:00:00 11.4 10 Sudeste 19 Este 0 898.2 -0.1 85
2018-11-14 18:00:00 13.1 7 Sudeste 16 Sudeste 0 897.9 -0.7 72
2018-11-14 17:00:00 15.1 6 Sudeste 13 Este 0 898 -1.1 63
2018-11-14 16:00:00 16.2 7 Sudeste 16 Sudeste 0 898.3 -1.4 60
2018-11-14 15:00:00 15.8 7 Sudeste 14 Sudeste 0 898.6 -2 67
2018-11-14 14:00:00 14.2 6 Sudeste 14 Sur 0 899.1 -2 71
2018-11-14 13:00:00 12.6 7 Sur 14 Sur 0 899.7 -1.6 81
2018-11-14 12:00:00 11.3 5 Sudeste 14 Este 0 900.6 -0.6 83
2018-11-14 11:00:00 9.4 7 Este 14 Nordeste 0 901.1 0.2 94
2018-11-14 10:00:00 8.2 5 Nordeste 9 Este 0 901.3 0.5 98
2018-11-14 09:00:00 7.8 4 Nordeste 8 Nordeste 0 901.2 0.1 97
2018-11-14 08:00:00 7.9 4 Este 8 Nordeste 0 900.9 -0.4 98
2018-11-14 07:00:00 7.9 2 Sudeste 9 Nordeste 0 900.8 -0.7 98
2018-11-14 06:00:00 8 4 Este 8 Nordeste 0 901.1 -0.7 98
2018-11-14 05:00:00 8.1 4 Nordeste 9 Este 0 901.3 -0.7 96
2018-11-14 04:00:00 8 4 Este 10 Nordeste 0 901.5 -0.9 94
2018-11-14 03:00:00 7.9 3 Este 8 Este 0 901.8 -0.8 94
2018-11-14 02:00:00 8.3 3 Nordeste 9 Nordeste 0 902 -0.7 93
2018-11-14 01:00:00 8.8 5 Norte 9 Nordeste 0 902.4 -0.3 93
2018-11-14 00:00:00 8.2 2 Sudeste 6 Sudeste 0 902.6 -0.1 94
2018-11-13 23:00:00 8.5 3 Nordeste 8 Este 0 902.7 0.2 91
2018-11-13 22:00:00 8.9 4 Este 7 Este 0 902.7 0.4 90
2018-11-13 21:00:00 9.2 4 Nordeste 11 Sudeste 0 902.7 0.9 91
2018-11-13 20:00:00 9.5 5 Sudeste 14 Sudeste 0 902.5 0.9 88
2018-11-13 19:00:00 10.5 7 Sudeste 15 Sudeste 0 902.3 1.3 86
2018-11-13 18:00:00 11.2 6 Sudeste 19 Este 0 901.8 0.7 80
2018-11-13 17:00:00 14.4 6 Sudeste 22 Sudeste 0 901.6 0.4 69
2018-11-13 16:00:00 16 8 Sudeste 19 Sudeste 0 901 -0.8 67
2018-11-13 15:00:00 17 7 Sudeste 19 Sudeste 0 901.1 -1.3 60
2018-11-13 14:00:00 16.1 6 Este 13 Este 0 901.2 -1.2 65
2018-11-13 13:00:00 14.3 7 Sudeste 14 Sudeste 0 901.8 -0.2 75
2018-11-13 12:00:00 11.7 5 Sur 15 Sudeste 0 902.4 1.2 84
2018-11-13 11:00:00 10.4 8 Sudeste 16 Sudeste 0 902.4 2 92
2018-11-13 10:00:00 8.8 5 Sudeste 11 Sudeste 0 902 2.2 96
2018-11-13 09:00:00 7.4 3 Este 7 Este 0 901.2 1.7 100
2018-11-13 08:00:00 5.8 3 Nordeste 10 Nordeste 0 900.4 1.1 97
2018-11-13 07:00:00 5.6 3 Nordeste 10 Nordeste 0 899.8 0.9 94
2018-11-13 06:00:00 6.3 5 Norte 10 Nordeste 0 899.5 0.6 95
2018-11-13 05:00:00 6.8 4 Norte 10 Nordeste 0 899.3 0.6 96
2018-11-13 04:00:00 7.5 7 Nordeste 11 Nordeste 0 898.9 0.4 97
2018-11-13 03:00:00 7.8 0 Calma 5 Este 0 898.9 0.7 95
2018-11-13 02:00:00 8.6 4 Norte 10 Nordeste 0 898.7 0.9 94
2018-11-13 01:00:00 9 4 Norte 8 Nordeste 0 898.5 1.2 94
2018-11-13 00:00:00 9.3 3 Norte 6 Noroeste 0 898.2 1.6 94
2018-11-12 23:00:00 9.5 3 Norte 9 Nordeste 0.2 897.8 1.8 94
2018-11-12 22:00:00 9.7 3 Nordeste 5 Nordeste 1 897.3 2 92
2018-11-12 21:00:00 9.9 4 Este 8 Este 0 896.6 2.2 89
2018-11-12 20:00:00 10.6 0 Calma 9 Noroeste 0 896 1.7 83
2018-11-12 19:00:00 10.6 0 Calma 5 Oeste 0 895.3 1.5 83
2018-11-12 18:00:00 11.3 0 Calma 8 Oeste 0 894.4 0.7 79
2018-11-12 17:00:00 11.8 5 Oeste 8 Oeste 0 894.3 0.6 77
2018-11-12 16:00:00 12.1 5 Oeste 14 Sudoeste 0 893.8 0 76
2018-11-12 15:00:00 12.8 6 Sudoeste 16 Sudoeste 0 893.7 -0.5 73
2018-11-12 14:00:00 12.8 8 Sudoeste 13 Sudoeste 0 893.7 -0.2 72
2018-11-12 13:00:00 11.6 8 Sur 17 Sur 0 893.8 0.4 77
2018-11-12 12:00:00 11.2 11 Sur 21 Sur 0 894.2 1.5 76
2018-11-12 11:00:00 10.7 10 Sur 20 Sudoeste 0 893.9 1.8 81
2018-11-12 10:00:00 10.3 13 Sur 24 Sudoeste 0 893.4 1.9 82
2018-11-12 09:00:00 9.5 10 Sur 20 Sur 0 892.7 1.6 89
2018-11-12 08:00:00 8.7 8 Sur 15 Sur 0 892.1 1.5 91
2018-11-12 07:00:00 8.9 4 Sur 18 Sudeste 0 891.5 1.7 89
2018-11-12 06:00:00 9.1 9 Sur 19 Sur 0 891.1 1.7 89
2018-11-12 05:00:00 9.1 6 Sudeste 17 Sur 0 890.6 0.9 91
2018-11-12 04:00:00 8.7 9 Sur 24 Sur 0 889.8 0 93
2018-11-12 03:00:00 8.9 9 Sur 20 Sudoeste 0 889.4 0.4 91
2018-11-12 02:00:00 9.7 9 Sur 19 Sudoeste 0 889.7 0.3 88
2018-11-12 01:00:00 10.5 9 Sur 21 Sur 0 889.8 0.4 89
2018-11-12 00:00:00 10.6 3 Sur 9 Sur 0 889 -0.9 90
2018-11-11 23:00:00 10.6 5 Sudoeste 21 Sur 0 889.4 -0.5 88
2018-11-11 22:00:00 10.9 11 Sur 20 Sur 0 889.4 -0.4 87
2018-11-11 21:00:00 10.9 8 Sur 18 Sur 0 889.9 0.4 87
2018-11-11 20:00:00 11 10 Sur 23 Sur 0 889.9 0.3 87
2018-11-11 19:00:00 11.2 12 Sur 25 Sur 0 889.8 0 85
2018-11-11 18:00:00 11.3 13 Sur 26 Sur 0 889.5 -0.9 84
2018-11-11 17:00:00 12 10 Sur 27 Sur 0 889.6 -0.9 80
2018-11-11 16:00:00 12.1 16 Sur 28 Sudoeste 0 889.8 -1 77
2018-11-11 15:00:00 11.9 16 Sur 32 Sudoeste 0 890.4 -1.2 81
2018-11-11 14:00:00 12.9 14 Sudoeste 29 Sudoeste 0 890.5 -1.4 82
2018-11-11 13:00:00 11.8 15 Sur 26 Sur 0 890.8 -0.9 87
2018-11-11 12:00:00 11.2 10 Sudoeste 22 Sur 0 891.6 0.3 92
2018-11-11 11:00:00 10.3 8 Sudoeste 17 Sudoeste 0 891.9 1.4 93
2018-11-11 10:00:00 10 10 Sudoeste 21 Noroeste 0 891.7 1.4 93
2018-11-11 09:00:00 9.4 9 Oeste 20 Sudoeste 0 891.3 1.3 96
2018-11-11 08:00:00 9 7 Oeste 18 Sudoeste 0 890.5 0.2 97
2018-11-11 07:00:00 9.6 10 Sudoeste 20 Sudoeste 0 890.3 0 97
2018-11-11 06:00:00 9.2 6 Sudoeste 14 Oeste 0 890 -0.7 96
2018-11-11 05:00:00 8.7 7 Oeste 13 Oeste 0 890.3 -0.5 96
2018-11-11 04:00:00 8.6 4 Sudoeste 10 Sur 0 890.3 -1.2 96
2018-11-11 03:00:00 8.4 3 Sur 11 Sudoeste 0 890.7 -0.6 92
2018-11-11 02:00:00 8.5 4 Sudoeste 12 Oeste 0 890.8 -0.3 90
2018-11-11 01:00:00 8.7 8 Oeste 22 Oeste 0 891.5 0.8 91
2018-11-11 00:00:00 8.6 9 Oeste 23 Oeste 0 891.3 1.2 92
2018-11-10 23:00:00 9.2 14 Oeste 37 Oeste 0 891.1 1.3 89
2018-11-10 22:00:00 9.8 19 Oeste 44 Oeste 0 890.7 1.4 88
2018-11-10 21:00:00 10.1 19 Oeste 40 Sudoeste 0 890.1 1.1 92
2018-11-10 20:00:00 10 17 Oeste 42 Sudoeste 0 889.8 1 90
2018-11-10 19:00:00 10.1 21 Oeste 39 Oeste 0 889.3 0.5 93
2018-11-10 18:00:00 10.3 16 Oeste 33 Sudoeste 0.2 889 0.5 92
2018-11-10 17:00:00 9.8 10 Sudoeste 27 Sudoeste 1.6 888.8 0.3 96
2018-11-10 16:00:00 9.7 12 Sudoeste 43 Sudoeste 0.8 888.8 -0.2 96
2018-11-10 15:00:00 9.9 17 Sudoeste 29 Sudoeste 1.2 888.5 -0.9 94
2018-11-10 14:00:00 9.8 15 Sudoeste 28 Sudoeste 1.6 888.5 -0.9 96
2018-11-10 13:00:00 9.6 12 Sudoeste 27 Oeste 1.2 889 -0.4 96
2018-11-10 12:00:00 9.5 16 Sudoeste 35 Sudoeste 0.4 889.4 0.1 96
2018-11-10 11:00:00 9.1 18 Sudoeste 31 Sudoeste 0.2 889.4 0.2 96
2018-11-10 10:00:00 8.3 15 Sudoeste 29 Sudoeste 0.2 889.4 -0.5 96
2018-11-10 09:00:00 7.6 14 Sudoeste 32 Sudoeste 0.4 889.3 -0.5 96
2018-11-10 08:00:00 7.4 13 Sudoeste 27 Sudoeste 0 889.2 -1.3 95
2018-11-10 07:00:00 7.1 11 Sudoeste 26 Sudoeste 0 889.9 -1 97
2018-11-10 06:00:00 6.9 10 Sudoeste 18 Sudoeste 0.2 889.8 -1.5 97
2018-11-10 05:00:00 6.8 9 Sudoeste 21 Sudoeste 0.2 890.5 -0.9 94
2018-11-10 04:00:00 6.7 12 Sudoeste 23 Sur 0 890.9 -1.2 94
2018-11-10 03:00:00 7.6 11 Sudoeste 30 Sudoeste 0 891.3 -1.1 93
2018-11-10 02:00:00 6.8 14 Sudoeste 30 Sudoeste 0 891.4 -1.7 97
2018-11-10 01:00:00 6.6 11 Sudoeste 20 Oeste 0 892.1 -1.3 95
2018-11-10 00:00:00 6.2 6 Sudoeste 22 Oeste 0 892.4 -1.4 96